Terminal Aerodrome Forecast
Issued by NWS Cleveland, OH

Home | Current Version | Previous Version | Graphics & Text | Print | Product List | Glossary On
Versions: 1 2 3 4 5 6 7 8 9 10 11 12 13 14 15 16 17 18 19
656
FTUS41 KCLE 211604 AAC
TAFMFD
TAF AMD
KMFD 211604Z 2116/2212 30005KT 4SM BR OVC008
     FM211700 30008KT P6SM SCT010
     FM220400 33010G20KT P6SM BKN035=

USA.gov is the U.S. government's official web portal to all federal, state and local government web resources and services.